Silex, Missouri
Current Conditions -  °F | °C
As of 3:05 PM on Saturday 22 Nov 2014 (Local Time) from KSET Reporting Station
Overcast Overcast  
Wind Chill: 58°   Ceiling: 3100
Heat Index: 58°   Visibility: 10mi
Dew Point: 48°   Wind: 17mph
Humidity: 70%   Direction: 200°SSW
Pressure: 29.95"   Gusts: NA
Location:  39.12°N, 91.05°W
Report Text: KSET 222105Z AUTO 20015KT 10SM BKN031 OVC039 14/09 A2995 RMK AO2 T01440089
Loading
Personal Weather Stations






























Interactive Weather Map New forecast layout! Learn more

10-Day Weather Forecast

Advertisements
Track Severe Weather on mobile